sensor_id;sensor_type;location;lat;lon;timestamp;pressure;altitude;pressure_sealevel;temperature;humidity
70841;BME280;58465;51.534;9.934;2023-02-19T00:01:15;99944.72;;;10.58;83.67
70841;BME280;58465;51.534;9.934;2023-02-19T00:03:41;99954.63;;;10.55;84.00
70841;BME280;58465;51.534;9.934;2023-02-19T00:06:09;99946.50;;;10.59;84.12
70841;BME280;58465;51.534;9.934;2023-02-19T00:08:36;99948.22;;;10.62;83.83
70841;BME280;58465;51.534;9.934;2023-02-19T00:11:07;99945.56;;;10.62;84.09
70841;BME280;58465;51.534;9.934;2023-02-19T00:13:37;99928.00;;;10.52;84.21
70841;BME280;58465;51.534;9.934;2023-02-19T00:16:07;99925.16;;;10.58;84.31
70841;BME280;58465;51.534;9.934;2023-02-19T00:18:34;99914.47;;;10.58;84.12
70841;BME280;58465;51.534;9.934;2023-02-19T00:20:59;99918.00;;;10.60;84.17
70841;BME280;58465;51.534;9.934;2023-02-19T00:23:24;99918.00;;;10.60;83.88
70841;BME280;58465;51.534;9.934;2023-02-19T00:25:50;99914.44;;;10.59;84.19
70841;BME280;58465;51.534;9.934;2023-02-19T00:28:16;99913.59;;;10.57;84.20
70841;BME280;58465;51.534;9.934;2023-02-19T00:30:41;99918.22;;;10.51;84.49
70841;BME280;58465;51.534;9.934;2023-02-19T00:33:06;99902.00;;;10.58;84.67
70841;BME280;58465;51.534;9.934;2023-02-19T00:35:33;99906.41;;;10.61;84.47
70841;BME280;58465;51.534;9.934;2023-02-19T00:37:59;99903.66;;;10.64;84.37
70841;BME280;58465;51.534;9.934;2023-02-19T00:40:24;99897.41;;;10.65;84.11
70841;BME280;58465;51.534;9.934;2023-02-19T00:42:50;99894.78;;;10.63;84.29
70841;BME280;58465;51.534;9.934;2023-02-19T00:45:15;99882.34;;;10.62;84.12
70841;BME280;58465;51.534;9.934;2023-02-19T00:47:41;99880.56;;;10.61;84.37
70841;BME280;58465;51.534;9.934;2023-02-19T00:50:06;99880.56;;;10.61;84.54
70841;BME280;58465;51.534;9.934;2023-02-19T00:52:31;99871.69;;;10.61;84.37
70841;BME280;58465;51.534;9.934;2023-02-19T00:54:56;99871.69;;;10.61;84.27
70841;BME280;58465;51.534;9.934;2023-02-19T00:57:22;99864.50;;;10.63;84.43
70841;BME280;58465;51.534;9.934;2023-02-19T00:59:47;99867.19;;;10.63;84.48
70841;BME280;58465;51.534;9.934;2023-02-19T01:02:12;99867.19;;;10.63;84.51
70841;BME280;58465;51.534;9.934;2023-02-19T01:04:37;99858.34;;;10.61;84.46
70841;BME280;58465;51.534;9.934;2023-02-19T01:07:03;99864.56;;;10.61;84.73
70841;BME280;58465;51.534;9.934;2023-02-19T01:09:28;99854.75;;;10.62;84.45
70841;BME280;58465;51.534;9.934;2023-02-19T01:11:53;99849.47;;;10.59;84.74
70841;BME280;58465;51.534;9.934;2023-02-19T01:14:19;99841.47;;;10.59;84.74
70841;BME280;58465;51.534;9.934;2023-02-19T01:16:44;99848.56;;;10.60;84.78
70841;BME280;58465;51.534;9.934;2023-02-19T01:19:09;99832.84;;;10.48;84.99
70841;BME280;58465;51.534;9.934;2023-02-19T01:21:34;99830.50;;;10.35;85.12
70841;BME280;58465;51.534;9.934;2023-02-19T01:24:00;99827.09;;;10.29;85.37
70841;BME280;58465;51.534;9.934;2023-02-19T01:26:30;99824.34;;;10.32;85.63
70841;BME280;58465;51.534;9.934;2023-02-19T01:28:56;99827.00;;;10.33;85.58
70841;BME280;58465;51.534;9.934;2023-02-19T01:31:23;99816.16;;;10.39;85.21
70841;BME280;58465;51.534;9.934;2023-02-19T01:33:51;99815.28;;;10.39;85.52
70841;BME280;58465;51.534;9.934;2023-02-19T01:36:17;99815.13;;;10.45;85.15
70841;BME280;58465;51.534;9.934;2023-02-19T01:38:43;99814.16;;;10.48;85.33
70841;BME280;58465;51.534;9.934;2023-02-19T01:41:11;99804.50;;;10.44;85.18
70841;BME280;58465;51.534;9.934;2023-02-19T01:46:34;99792.72;;;10.51;85.17
70841;BME280;58465;51.534;9.934;2023-02-19T01:49:42;99783.78;;;10.52;85.18
70841;BME280;58465;51.534;9.934;2023-02-19T01:52:31;99786.63;;;10.46;85.48
70841;BME280;58465;51.534;9.934;2023-02-19T01:55:00;99778.47;;;10.52;85.38
70841;BME280;58465;51.534;9.934;2023-02-19T01:57:31;99775.81;;;10.50;85.60
70841;BME280;58465;51.534;9.934;2023-02-19T02:00:01;99778.53;;;10.49;85.53
70841;BME280;58465;51.534;9.934;2023-02-19T02:02:26;99782.13;;;10.48;85.36
70841;BME280;58465;51.534;9.934;2023-02-19T02:04:53;99770.59;;;10.47;85.45
70841;BME280;58465;51.534;9.934;2023-02-19T02:07:19;99769.72;;;10.47;85.24
70841;BME280;58465;51.534;9.934;2023-02-19T02:10:03;99773.19;;;10.49;85.38
70841;BME280;58465;51.534;9.934;2023-02-19T02:12:44;99766.09;;;10.48;85.51
70841;BME280;58465;51.534;9.934;2023-02-19T02:15:09;99764.38;;;10.47;85.26
70841;BME280;58465;51.534;9.934;2023-02-19T02:17:43;99768.75;;;10.48;85.54
70841;BME280;58465;51.534;9.934;2023-02-19T02:20:21;99762.69;;;10.43;85.35
70841;BME280;58465;51.534;9.934;2023-02-19T02:28:45;99751.81;;;10.49;85.18
70841;BME280;58465;51.534;9.934;2023-02-19T02:31:18;99755.34;;;10.51;84.91
70841;BME280;58465;51.534;9.934;2023-02-19T02:33:53;99754.38;;;10.53;84.59
70841;BME280;58465;51.534;9.934;2023-02-19T02:36:30;99754.47;;;10.50;84.63
70841;BME280;58465;51.534;9.934;2023-02-19T02:38:59;99736.56;;;10.54;84.65
70841;BME280;58465;51.534;9.934;2023-02-19T02:41:25;99744.72;;;10.48;84.75
70841;BME280;58465;51.534;9.934;2023-02-19T02:43:50;99743.75;;;10.52;84.85
70841;BME280;58465;51.534;9.934;2023-02-19T02:46:20;99746.41;;;10.52;84.62
70841;BME280;58465;51.534;9.934;2023-02-19T02:48:54;99749.03;;;10.53;84.77
70841;BME280;58465;51.534;9.934;2023-02-19T02:53:52;99747.38;;;10.49;84.75
70841;BME280;58465;51.534;9.934;2023-02-19T02:56:40;99750.81;;;10.54;84.83
70841;BME280;58465;51.534;9.934;2023-02-19T02:59:09;99742.84;;;10.53;84.92
70841;BME280;58465;51.534;9.934;2023-02-19T03:06:54;99752.56;;;10.55;84.96
70841;BME280;58465;51.534;9.934;2023-02-19T03:09:26;99755.28;;;10.54;84.95
70841;BME280;58465;51.534;9.934;2023-02-19T03:11:57;99751.66;;;10.56;84.95
70841;BME280;58465;51.534;9.934;2023-02-19T03:14:46;99764.22;;;10.51;84.66
70841;BME280;58465;51.534;9.934;2023-02-19T03:17:38;99758.78;;;10.56;84.85
70841;BME280;58465;51.534;9.934;2023-02-19T03:20:24;99769.34;;;10.59;84.47
70841;BME280;58465;51.534;9.934;2023-02-19T03:22:51;99763.06;;;10.61;84.48
70841;BME280;58465;51.534;9.934;2023-02-19T03:25:27;99760.31;;;10.64;84.67
70841;BME280;58465;51.534;9.934;2023-02-19T03:28:14;99754.22;;;10.59;84.57
70841;BME280;58465;51.534;9.934;2023-02-19T03:30:46;99755.94;;;10.62;84.70
70841;BME280;58465;51.534;9.934;2023-02-19T03:33:21;99757.94;;;10.54;84.61
70841;BME280;58465;51.534;9.934;2023-02-19T03:35:55;99764.06;;;10.57;84.48
70841;BME280;58465;51.534;9.934;2023-02-19T03:38:29;99759.47;;;10.62;84.27
70841;BME280;58465;51.534;9.934;2023-02-19T03:41:03;99763.00;;;10.64;84.08
70841;BME280;58465;51.534;9.934;2023-02-19T03:43:45;99753.97;;;10.68;84.13
70841;BME280;58465;51.534;9.934;2023-02-19T03:46:41;99762.75;;;10.73;83.90
70841;BME280;58465;51.534;9.934;2023-02-19T03:49:17;99762.75;;;10.73;84.00
70841;BME280;58465;51.534;9.934;2023-02-19T03:51:52;99760.22;;;10.67;83.99
70841;BME280;58465;51.534;9.934;2023-02-19T03:54:22;99759.19;;;10.73;83.72
70841;BME280;58465;51.534;9.934;2023-02-19T03:56:59;99762.97;;;10.66;83.64
70841;BME280;58465;51.534;9.934;2023-02-19T04:01:55;99763.34;;;10.83;82.95
70841;BME280;58465;51.534;9.934;2023-02-19T04:04:27;99771.44;;;10.80;83.24
70841;BME280;58465;51.534;9.934;2023-02-19T04:06:56;99782.97;;;10.82;83.10
70841;BME280;58465;51.534;9.934;2023-02-19T04:09:25;99780.47;;;10.76;83.30
70841;BME280;58465;51.534;9.934;2023-02-19T04:11:52;99784.00;;;10.76;83.36
70841;BME280;58465;51.534;9.934;2023-02-19T04:14:37;99797.44;;;10.75;83.57
70841;BME280;58465;51.534;9.934;2023-02-19T04:17:08;99795.63;;;10.75;83.61
70841;BME280;58465;51.534;9.934;2023-02-19T04:19:38;99802.19;;;10.64;83.85
70841;BME280;58465;51.534;9.934;2023-02-19T04:22:05;99814.72;;;10.60;83.90
70841;BME280;58465;51.534;9.934;2023-02-19T04:24:35;99828.03;;;10.62;84.03
70841;BME280;58465;51.534;9.934;2023-02-19T04:27:02;99811.09;;;10.63;84.07
70841;BME280;58465;51.534;9.934;2023-02-19T04:29:28;99807.75;;;10.55;84.09
70841;BME280;58465;51.534;9.934;2023-02-19T04:31:53;99805.09;;;10.55;84.67
70841;BME280;58465;51.534;9.934;2023-02-19T04:34:19;99813.09;;;10.55;84.70
70841;BME280;58465;51.534;9.934;2023-02-19T04:36:44;99820.34;;;10.50;84.82
70841;BME280;58465;51.534;9.934;2023-02-19T04:39:09;99825.66;;;10.51;84.90
70841;BME280;58465;51.534;9.934;2023-02-19T04:41:34;99824.03;;;10.46;84.77
70841;BME280;58465;51.534;9.934;2023-02-19T04:44:00;99827.63;;;10.43;84.97
70841;BME280;58465;51.534;9.934;2023-02-19T04:46:25;99833.81;;;10.45;84.75
70841;BME280;58465;51.534;9.934;2023-02-19T04:48:50;99831.94;;;10.49;84.66
70841;BME280;58465;51.534;9.934;2023-02-19T04:51:16;99843.38;;;10.54;84.76
70841;BME280;58465;51.534;9.934;2023-02-19T04:53:41;99838.53;;;10.35;84.74
70841;BME280;58465;51.534;9.934;2023-02-19T04:56:12;99840.25;;;10.38;84.76
70841;BME280;58465;51.534;9.934;2023-02-19T04:58:39;99847.13;;;10.47;84.75
70841;BME280;58465;51.534;9.934;2023-02-19T05:01:05;99844.53;;;10.44;84.60
70841;BME280;58465;51.534;9.934;2023-02-19T05:03:30;99848.16;;;10.41;84.43
70841;BME280;58465;51.534;9.934;2023-02-19T05:05:56;99848.84;;;10.49;84.53
70841;BME280;58465;51.534;9.934;2023-02-19T05:08:21;99863.88;;;10.53;84.42
70841;BME280;58465;51.534;9.934;2023-02-19T05:10:46;99863.84;;;10.55;84.14
70841;BME280;58465;51.534;9.934;2023-02-19T05:13:12;99873.69;;;10.53;84.38
70841;BME280;58465;51.534;9.934;2023-02-19T05:15:37;99880.41;;;10.32;84.64
70841;BME280;58465;51.534;9.934;2023-02-19T05:18:03;99872.38;;;9.95;84.84
70841;BME280;58465;51.534;9.934;2023-02-19T05:20:28;99878.66;;;9.91;84.89
70841;BME280;58465;51.534;9.934;2023-02-19T05:22:53;99890.06;;;9.99;84.81
70841;BME280;58465;51.534;9.934;2023-02-19T05:25:19;99883.19;;;9.89;85.43
70841;BME280;58465;51.534;9.934;2023-02-19T05:27:44;99885.69;;;9.95;85.13
70841;BME280;58465;51.534;9.934;2023-02-19T05:30:10;99885.47;;;10.05;84.68
70841;BME280;58465;51.534;9.934;2023-02-19T05:32:37;99888.31;;;9.98;84.92
70841;BME280;58465;51.534;9.934;2023-02-19T05:35:03;99892.13;;;9.86;85.02
70841;BME280;58465;51.534;9.934;2023-02-19T05:37:28;99902.63;;;9.94;84.85
70841;BME280;58465;51.534;9.934;2023-02-19T05:39:53;99894.44;;;10.01;84.69
70841;BME280;58465;51.534;9.934;2023-02-19T05:42:19;99901.53;;;10.02;84.64
70841;BME280;58465;51.534;9.934;2023-02-19T05:44:44;99898.88;;;10.01;84.44
70841;BME280;58465;51.534;9.934;2023-02-19T05:47:09;99897.13;;;10.00;84.19
70841;BME280;58465;51.534;9.934;2023-02-19T05:49:35;99901.63;;;9.99;83.73
70841;BME280;58465;51.534;9.934;2023-02-19T05:52:00;99900.66;;;10.02;83.94
70841;BME280;58465;51.534;9.934;2023-02-19T05:54:27;99897.22;;;9.97;83.50
70841;BME280;58465;51.534;9.934;2023-02-19T05:56:53;99906.28;;;9.90;83.47
70841;BME280;58465;51.534;9.934;2023-02-19T05:59:21;99917.00;;;9.87;83.66
70841;BME280;58465;51.534;9.934;2023-02-19T06:01:48;99917.72;;;9.95;83.77
70841;BME280;58465;51.534;9.934;2023-02-19T06:04:13;99925.81;;;9.90;83.86
70841;BME280;58465;51.534;9.934;2023-02-19T06:06:40;99924.00;;;9.92;83.96
70841;BME280;58465;51.534;9.934;2023-02-19T06:09:06;99934.66;;;9.92;84.00
70841;BME280;58465;51.534;9.934;2023-02-19T06:11:32;99930.19;;;9.94;83.90
70841;BME280;58465;51.534;9.934;2023-02-19T06:13:58;99928.53;;;9.89;84.13
70841;BME280;58465;51.534;9.934;2023-02-19T06:16:23;99933.06;;;9.84;83.83
70841;BME280;58465;51.534;9.934;2023-02-19T06:18:49;99941.94;;;9.86;83.74
70841;BME280;58465;51.534;9.934;2023-02-19T06:21:15;99951.63;;;9.90;83.80
70841;BME280;58465;51.534;9.934;2023-02-19T06:23:42;99955.00;;;9.98;83.79
70841;BME280;58465;51.534;9.934;2023-02-19T06:26:16;99951.31;;;10.03;84.19
70841;BME280;58465;51.534;9.934;2023-02-19T06:28:43;99956.72;;;10.00;83.83
70841;BME280;58465;51.534;9.934;2023-02-19T06:31:09;99954.97;;;9.99;83.69
70841;BME280;58465;51.534;9.934;2023-02-19T06:33:35;99965.69;;;9.98;83.68
70841;BME280;58465;51.534;9.934;2023-02-19T06:36:01;99963.84;;;10.00;84.00
70841;BME280;58465;51.534;9.934;2023-02-19T06:38:28;99968.25;;;10.01;83.80
70841;BME280;58465;51.534;9.934;2023-02-19T06:40:54;99973.56;;;10.02;83.68
70841;BME280;58465;51.534;9.934;2023-02-19T06:43:19;99970.91;;;10.02;83.29
70841;BME280;58465;51.534;9.934;2023-02-19T06:45:45;99978.88;;;10.04;83.67
70841;BME280;58465;51.534;9.934;2023-02-19T06:48:10;99979.69;;;10.09;83.71
70841;BME280;58465;51.534;9.934;2023-02-19T06:50:36;99977.00;;;10.09;83.55
70841;BME280;58465;51.534;9.934;2023-02-19T06:53:01;99977.81;;;10.13;83.62
70841;BME280;58465;51.534;9.934;2023-02-19T06:55:26;99980.38;;;10.17;83.50
70841;BME280;58465;51.534;9.934;2023-02-19T06:57:51;99987.72;;;10.08;83.62
70841;BME280;58465;51.534;9.934;2023-02-19T07:00:17;99986.72;;;10.12;83.57
70841;BME280;58465;51.534;9.934;2023-02-19T07:02:42;99987.53;;;10.15;83.54
70841;BME280;58465;51.534;9.934;2023-02-19T07:05:07;99993.69;;;10.20;83.44
70841;BME280;58465;51.534;9.934;2023-02-19T07:07:33;99998.09;;;10.21;83.47
70841;BME280;58465;51.534;9.934;2023-02-19T07:09:58;100001.59;;;10.25;83.51
70841;BME280;58465;51.534;9.934;2023-02-19T07:12:23;100007.84;;;10.24;83.07
70841;BME280;58465;51.534;9.934;2023-02-19T07:14:48;100016.19;;;10.07;83.17
70841;BME280;58465;51.534;9.934;2023-02-19T07:17:14;100016.25;;;10.04;83.03
70841;BME280;58465;51.534;9.934;2023-02-19T07:19:39;100021.31;;;10.16;82.44
70841;BME280;58465;51.534;9.934;2023-02-19T07:22:04;100024.72;;;10.26;82.45
70841;BME280;58465;51.534;9.934;2023-02-19T07:24:29;100031.66;;;10.33;82.62
70841;BME280;58465;51.534;9.934;2023-02-19T07:26:55;100033.66;;;10.23;82.39
70841;BME280;58465;51.534;9.934;2023-02-19T07:29:20;100059.25;;;9.89;82.70
70841;BME280;58465;51.534;9.934;2023-02-19T07:31:45;100081.38;;;9.46;81.11
70841;BME280;58465;51.534;9.934;2023-02-19T07:34:11;100082.88;;;9.09;80.41
70841;BME280;58465;51.534;9.934;2023-02-19T07:36:36;100097.69;;;8.68;81.66
70841;BME280;58465;51.534;9.934;2023-02-19T07:39:02;100097.03;;;8.52;81.86
70841;BME280;58465;51.534;9.934;2023-02-19T07:41:27;100121.22;;;8.36;82.35
70841;BME280;58465;51.534;9.934;2023-02-19T07:43:53;100118.56;;;8.33;82.01
70841;BME280;58465;51.534;9.934;2023-02-19T07:46:19;100125.78;;;8.22;81.80
70841;BME280;58465;51.534;9.934;2023-02-19T07:48:45;100136.50;;;8.15;81.92
70841;BME280;58465;51.534;9.934;2023-02-19T07:51:15;100147.91;;;8.25;81.61
70841;BME280;58465;51.534;9.934;2023-02-19T07:53:43;100148.97;;;8.07;81.22
70841;BME280;58465;51.534;9.934;2023-02-19T07:56:09;100158.78;;;8.02;81.27
70841;BME280;58465;51.534;9.934;2023-02-19T07:58:35;100168.44;;;8.12;81.21
70841;BME280;58465;51.534;9.934;2023-02-19T08:01:08;100168.53;;;8.06;81.00
70841;BME280;58465;51.534;9.934;2023-02-19T08:03:35;100180.75;;;8.21;80.75
70841;BME280;58465;51.534;9.934;2023-02-19T08:06:00;100186.88;;;8.29;80.58
70841;BME280;58465;51.534;9.934;2023-02-19T08:08:26;100190.38;;;8.37;80.14
70841;BME280;58465;51.534;9.934;2023-02-19T08:10:51;100201.09;;;8.31;80.04
70841;BME280;58465;51.534;9.934;2023-02-19T08:13:35;100200.28;;;8.22;79.88
70841;BME280;58465;51.534;9.934;2023-02-19T08:18:26;100220.59;;;8.27;79.59
70841;BME280;58465;51.534;9.934;2023-02-19T08:20:54;100232.06;;;8.37;79.41
70841;BME280;58465;51.534;9.934;2023-02-19T08:23:19;100241.00;;;8.27;79.35
70841;BME280;58465;51.534;9.934;2023-02-19T08:25:46;100225.91;;;8.29;79.10
70841;BME280;58465;51.534;9.934;2023-02-19T08:28:12;100233.25;;;8.04;80.69
70841;BME280;58465;51.534;9.934;2023-02-19T08:30:39;100232.38;;;8.05;81.62
70841;BME280;58465;51.534;9.934;2023-02-19T08:33:05;100243.13;;;7.88;81.74
70841;BME280;58465;51.534;9.934;2023-02-19T08:35:31;100248.41;;;7.94;82.01
70841;BME280;58465;51.534;9.934;2023-02-19T08:37:59;100258.91;;;8.12;82.11
70841;BME280;58465;51.534;9.934;2023-02-19T08:40:25;100264.94;;;8.34;80.63
70841;BME280;58465;51.534;9.934;2023-02-19T08:42:51;100270.22;;;8.37;80.02
70841;BME280;58465;51.534;9.934;2023-02-19T08:45:17;100266.84;;;8.15;79.36
70841;BME280;58465;51.534;9.934;2023-02-19T08:47:43;100269.66;;;7.99;80.65
70841;BME280;58465;51.534;9.934;2023-02-19T08:50:08;100272.25;;;8.06;81.07
70841;BME280;58465;51.534;9.934;2023-02-19T08:52:33;100280.25;;;8.06;81.08
70841;BME280;58465;51.534;9.934;2023-02-19T08:54:59;100283.66;;;8.17;81.35
70841;BME280;58465;51.534;9.934;2023-02-19T08:57:25;100295.16;;;8.21;80.73
70841;BME280;58465;51.534;9.934;2023-02-19T08:59:51;100303.22;;;8.13;80.00
70841;BME280;58465;51.534;9.934;2023-02-19T09:02:16;100300.47;;;8.24;79.14
70841;BME280;58465;51.534;9.934;2023-02-19T09:04:41;100310.16;;;8.36;79.66
70841;BME280;58465;51.534;9.934;2023-02-19T09:07:06;100312.91;;;8.22;78.91
70841;BME280;58465;51.534;9.934;2023-02-19T09:09:36;100313.97;;;8.01;78.98
70841;BME280;58465;51.534;9.934;2023-02-19T09:12:06;100316.63;;;8.03;79.72
70841;BME280;58465;51.534;9.934;2023-02-19T09:14:32;100315.59;;;8.19;79.54
70841;BME280;58465;51.534;9.934;2023-02-19T09:16:58;100307.44;;;8.42;79.84
70841;BME280;58465;51.534;9.934;2023-02-19T09:19:24;100316.38;;;8.35;78.05
70841;BME280;58465;51.534;9.934;2023-02-19T09:21:50;100325.19;;;8.41;78.13
70841;BME280;58465;51.534;9.934;2023-02-19T09:24:15;100326.00;;;8.46;78.41
70841;BME280;58465;51.534;9.934;2023-02-19T09:26:40;100333.88;;;8.59;77.27
70841;BME280;58465;51.534;9.934;2023-02-19T09:29:06;100337.53;;;8.47;77.39
70841;BME280;58465;51.534;9.934;2023-02-19T09:31:31;100338.41;;;8.52;76.77
70841;BME280;58465;51.534;9.934;2023-02-19T09:33:59;100347.31;;;8.46;76.88
70841;BME280;58465;51.534;9.934;2023-02-19T09:36:24;100359.78;;;8.41;76.64
70841;BME280;58465;51.534;9.934;2023-02-19T09:38:49;100364.13;;;8.54;76.51
70841;BME280;58465;51.534;9.934;2023-02-19T09:41:28;100365.72;;;8.74;75.92
70841;BME280;58465;51.534;9.934;2023-02-19T09:43:56;100383.28;;;8.90;76.07
70841;BME280;58465;51.534;9.934;2023-02-19T09:46:46;100392.97;;;8.96;74.71
70841;BME280;58465;51.534;9.934;2023-02-19T09:49:23;100389.72;;;8.68;75.35
70841;BME280;58465;51.534;9.934;2023-02-19T09:51:55;100396.16;;;8.44;75.40
70841;BME280;58465;51.534;9.934;2023-02-19T09:54:27;100413.91;;;8.43;75.20
70841;BME280;58465;51.534;9.934;2023-02-19T09:56:55;100404.00;;;8.56;74.86
70841;BME280;58465;51.534;9.934;2023-02-19T09:59:25;100409.31;;;8.59;74.96
70841;BME280;58465;51.534;9.934;2023-02-19T10:01:58;100411.06;;;8.63;74.44
70841;BME280;58465;51.534;9.934;2023-02-19T10:04:23;100408.50;;;8.54;74.00
70841;BME280;58465;51.534;9.934;2023-02-19T10:06:50;100411.91;;;8.65;73.69
70841;BME280;58465;51.534;9.934;2023-02-19T10:09:21;100414.66;;;8.56;73.00
70841;BME280;58465;51.534;9.934;2023-02-19T10:11:48;100416.22;;;8.81;72.78
70841;BME280;58465;51.534;9.934;2023-02-19T10:14:35;100427.78;;;8.76;72.89
70841;BME280;58465;51.534;9.934;2023-02-19T10:17:04;100440.94;;;8.97;71.67
70841;BME280;58465;51.534;9.934;2023-02-19T10:19:32;100439.81;;;9.18;70.58
70841;BME280;58465;51.534;9.934;2023-02-19T10:21:59;100454.03;;;9.18;69.59
70841;BME280;58465;51.534;9.934;2023-02-19T10:24:27;100461.13;;;9.21;70.19
70841;BME280;58465;51.534;9.934;2023-02-19T10:26:54;100464.09;;;8.89;71.09
70841;BME280;58465;51.534;9.934;2023-02-19T10:29:20;100465.06;;;8.77;71.92
70841;BME280;58465;51.534;9.934;2023-02-19T10:31:46;100480.25;;;8.68;72.32
70841;BME280;58465;51.534;9.934;2023-02-19T10:34:21;100494.59;;;8.50;73.24
70841;BME280;58465;51.534;9.934;2023-02-19T10:36:50;100500.00;;;8.29;73.68
70841;BME280;58465;51.534;9.934;2023-02-19T10:41:56;100519.56;;;8.18;73.63
70841;BME280;58465;51.534;9.934;2023-02-19T10:44:25;100524.94;;;8.12;72.16
70841;BME280;58465;51.534;9.934;2023-02-19T10:46:53;100523.06;;;8.30;71.47
70841;BME280;58465;51.534;9.934;2023-02-19T10:49:25;100529.28;;;8.30;70.26
70841;BME280;58465;51.534;9.934;2023-02-19T10:51:53;100529.38;;;8.09;70.99
70841;BME280;58465;51.534;9.934;2023-02-19T10:54:31;100537.41;;;8.00;72.85
70841;BME280;58465;51.534;9.934;2023-02-19T10:59:48;100553.41;;;7.94;73.26
70841;BME280;58465;51.534;9.934;2023-02-19T11:02:15;100548.09;;;7.97;73.55
70841;BME280;58465;51.534;9.934;2023-02-19T11:07:55;100568.34;;;8.20;71.44
70841;BME280;58465;51.534;9.934;2023-02-19T11:10:39;100560.38;;;8.20;70.71
70841;BME280;58465;51.534;9.934;2023-02-19T11:13:13;100567.41;;;8.37;70.97
70841;BME280;58465;51.534;9.934;2023-02-19T11:15:40;100564.81;;;8.26;69.72
70841;BME280;58465;51.534;9.934;2023-02-19T11:18:21;100559.38;;;8.49;70.83
70841;BME280;58465;51.534;9.934;2023-02-19T11:20:52;100562.72;;;8.83;69.53
70841;BME280;58465;51.534;9.934;2023-02-19T11:23:24;100559.75;;;9.18;68.63
70841;BME280;58465;51.534;9.934;2023-02-19T11:25:51;100553.44;;;9.28;67.59
70841;BME280;58465;51.534;9.934;2023-02-19T11:30:46;100545.34;;;9.40;66.12
70841;BME280;58465;51.534;9.934;2023-02-19T11:35:41;100550.47;;;9.60;64.43
70841;BME280;58465;51.534;9.934;2023-02-19T11:38:09;100561.66;;;9.91;65.34
70841;BME280;58465;51.534;9.934;2023-02-19T11:40:40;100569.03;;;9.69;63.87
70841;BME280;58465;51.534;9.934;2023-02-19T11:43:21;100562.81;;;9.68;63.25
70841;BME280;58465;51.534;9.934;2023-02-19T11:48:25;100570.53;;;9.93;62.06
70841;BME280;58465;51.534;9.934;2023-02-19T11:53:47;100579.41;;;9.98;61.85
70841;BME280;58465;51.534;9.934;2023-02-19T11:56:20;100580.94;;;10.17;61.71
70841;BME280;58465;51.534;9.934;2023-02-19T11:59:02;100578.84;;;10.42;60.20
70841;BME280;58465;51.534;9.934;2023-02-19T12:15:26;100571.81;;;10.96;58.65
70841;BME280;58465;51.534;9.934;2023-02-19T12:20:33;100557.50;;;11.00;58.43
70841;BME280;58465;51.534;9.934;2023-02-19T12:26:29;100571.81;;;10.98;58.33
70841;BME280;58465;51.534;9.934;2023-02-19T12:34:58;100556.03;;;10.81;57.68
70841;BME280;58465;51.534;9.934;2023-02-19T12:37:34;100560.66;;;10.68;56.37
70841;BME280;58465;51.534;9.934;2023-02-19T12:40:16;100560.81;;;10.58;57.73
70841;BME280;58465;51.534;9.934;2023-02-19T12:43:08;100560.59;;;10.74;57.21
70841;BME280;58465;51.534;9.934;2023-02-19T12:45:45;100575.00;;;10.64;57.83
70841;BME280;58465;51.534;9.934;2023-02-19T12:48:19;100577.09;;;10.41;56.98
70841;BME280;58465;51.534;9.934;2023-02-19T12:50:54;100583.56;;;10.22;57.96
70841;BME280;58465;51.534;9.934;2023-02-19T12:53:38;100586.88;;;10.42;57.52
70841;BME280;58465;51.534;9.934;2023-02-19T12:56:09;100587.59;;;10.56;58.36
70841;BME280;58465;51.534;9.934;2023-02-19T12:58:49;100593.81;;;10.55;55.49
70841;BME280;58465;51.534;9.934;2023-02-19T13:01:24;100594.66;;;10.59;55.83
70841;BME280;58465;51.534;9.934;2023-02-19T13:04:03;100594.34;;;10.82;55.34
70841;BME280;58465;51.534;9.934;2023-02-19T13:09:28;100604.16;;;10.78;55.48
70841;BME280;58465;51.534;9.934;2023-02-19T13:11:58;100607.19;;;10.55;55.53
70841;BME280;58465;51.534;9.934;2023-02-19T13:17:07;100621.94;;;10.82;56.23
70841;BME280;58465;51.534;9.934;2023-02-19T13:19:37;100613.69;;;10.96;56.54
70841;BME280;58465;51.534;9.934;2023-02-19T13:22:14;100614.63;;;10.95;55.17
70841;BME280;58465;51.534;9.934;2023-02-19T13:25:01;100622.47;;;11.05;54.22
70841;BME280;58465;51.534;9.934;2023-02-19T13:33:14;100632.22;;;11.09;54.59
70841;BME280;58465;51.534;9.934;2023-02-19T13:36:00;100627.66;;;11.16;55.08
70841;BME280;58465;51.534;9.934;2023-02-19T13:38:44;100637.47;;;11.15;54.87
70841;BME280;58465;51.534;9.934;2023-02-19T13:41:30;100639.97;;;11.25;54.68
70841;BME280;58465;51.534;9.934;2023-02-19T13:44:01;100640.88;;;11.25;54.79
70841;BME280;58465;51.534;9.934;2023-02-19T13:46:42;100643.50;;;11.28;53.95
70841;BME280;58465;51.534;9.934;2023-02-19T13:51:57;100644.28;;;11.35;53.38
70841;BME280;58465;51.534;9.934;2023-02-19T13:54:28;100640.28;;;11.06;54.14
70841;BME280;58465;51.534;9.934;2023-02-19T13:59:47;100637.72;;;10.97;55.06
70841;BME280;58465;51.534;9.934;2023-02-19T14:04:51;100634.84;;;11.14;54.68
70841;BME280;58465;51.534;9.934;2023-02-19T14:09:43;100635.56;;;10.62;54.39
70841;BME280;58465;51.534;9.934;2023-02-19T14:19:53;100637.06;;;10.11;54.79
70841;BME280;58465;51.534;9.934;2023-02-19T14:28:01;100645.06;;;10.11;55.41
70841;BME280;58465;51.534;9.934;2023-02-19T14:30:28;100646.94;;;10.03;56.03
70841;BME280;58465;51.534;9.934;2023-02-19T14:32:54;100640.72;;;10.02;55.68
70841;BME280;58465;51.534;9.934;2023-02-19T14:35:22;100638.81;;;10.12;55.60
70841;BME280;58465;51.534;9.934;2023-02-19T14:37:49;100648.69;;;10.07;56.40
70841;BME280;58465;51.534;9.934;2023-02-19T14:40:21;100647.72;;;10.11;55.72
70841;BME280;58465;51.534;9.934;2023-02-19T14:42:48;100639.66;;;10.17;56.39
70841;BME280;58465;51.534;9.934;2023-02-19T14:45:16;100633.41;;;10.21;56.27
70841;BME280;58465;51.534;9.934;2023-02-19T14:47:44;100641.13;;;10.46;56.12
70841;BME280;58465;51.534;9.934;2023-02-19T14:50:19;100643.03;;;10.37;55.60
70841;BME280;58465;51.534;9.934;2023-02-19T14:52:50;100651.03;;;10.37;55.40